Sinclair City, Texas
Current Conditions -  °F | °C
As of 6:55 AM on Friday 19 Dec 2014 (Local Time) from KJSO Reporting Station
Moderate Rain Moderate Rain  
Wind Chill: 44°   Ceiling: 200
Heat Index: 48°   Visibility: 2.5mi
Dew Point: 48°   Wind: 10mph
Humidity: 99%   Direction: 20°NNE
Pressure: 30.11"   Gusts: NA
Location:  32.0774°N, 95.1103°W
Report Text: KJSO 191255Z AUTO 02009KT 2 1/2SM RA OVC002 08/08 A3011 RMK AO2 LTG DSNT S P0003 T00900088
Loading
Personal Weather Stations






























Interactive Weather Map New forecast layout! Learn more

10-Day Weather Forecast

Advertisements
Track Severe Weather on mobile